Hemsworth, United Kingdom
Current Conditions -  °F | °C
As of 6:50 AM on Thursday 27 Nov 2014 (Local Time) from EGCN Reporting Station
Moderate Fog Moderate Fog  
Wind Chill: 45°   Ceiling: 100
Heat Index: 45°   Visibility: 0.43mi
Dew Point: 45°   Wind: 3mph
Humidity: 100%   Direction: 360°N
Pressure: 29.65"   Gusts: NA
Location:  53.61°N, 1.35°W
Report Text: EGCN 270650Z 36003KT 0700 R20/0700 FG OVC001 07/07 Q1004
Loading
Personal Weather Stations






























Interactive Weather Map New forecast layout! Learn more

10-Day Weather Forecast

Advertisements
Track Severe Weather on mobile